Portada
METAR-TAF:

METAR-TAF

Aeroports :

Skelton Airport

Eureka, Alaska, Estats Units d'Amèrica

latitud: 61-56N, longitud: 147-10W, altitud: 1002 m

Observació

L'informe es va fer fa 35 minuts, a les 09:56 UTC
Vent calma
Temperatura -8°C
Humitat 92%
Pressió 993 hPa
Visibilitat: 16.1 km
Cel ennuvolat a una alçada de 11000 ft

METAR: PAZK 120956Z AUTO 00000KT 10SM BKN110 M08/M09 A2932 RMK AO2 SLP990 T10831094 FZRANO

Hora: 01:31 (10:31 UTC)


TAF: manca

Observacions i pronòstics meteorològics de més de 4000 aeroports (METAR i TAF).

Les estacions disponibles són els punts grocs i vermells al mapa.

Posi el ratolí al punt desitjat per veure el nom de l'estació.

Feu clic per veure les observacions i els pronòstics meteorològics.

Per canviar el mapa: feu clic els botons verds amb una creu de color negre per apropar; al botó verd amb un guió per allunyar la imatge; o en les fletxes verdes per a mapes adjacents.


METAR-TAF: